Time,TemperatureF,DewpointF,PressureIn,WindDirection,WindDirectionDegrees,WindSpeedMPH,WindSpeedGustMPH,Humidity,HourlyPrecipIn,Conditions,Clouds,dailyrainin,SoftwareType,DateUTC
2013-02-18 00:00:00,30.9,-99.9,29.96,NNW,337,0.0,0.0,-999,0.00,,---,0.00,VWS V14.01,2013-02-18 08:00:00,
2013-02-18 00:01:00,32.0,-99.9,29.95,North,350,0.0,5.0,-999,0.00,,---,0.00,VWS V14.01,2013-02-18 08:01:00,
2013-02-18 00:06:00,32.3,-99.9,29.95,NNW,337,0.0,3.0,-999,0.00,,---,0.00,VWS V14.01,2013-02-18 08:06:00,
2013-02-18 00:11:00,32.1,-99.9,29.95,NNW,337,0.0,3.0,-999,0.00,,---,0.00,VWS V14.01,2013-02-18 08:11:00,
2013-02-18 00:16:00,32.3,-99.9,29.95,NNW,337,0.0,3.0,-999,0.00,,---,0.00,VWS V14.01,2013-02-18 08:16:00,
2013-02-18 00:21:00,31.4,-99.9,29.95,NNW,337,0.0,3.0,-999,0.00,,---,0.00,VWS V14.01,2013-02-18 08:21:00,
2013-02-18 00:26:00,31.8,-99.9,29.96,NNW,337,0.0,3.0,-999,0.00,,---,0.00,VWS V14.01,2013-02-18 08:26:00,
2013-02-18 00:30:00,31.3,-99.9,29.95,NW,304,0.0,4.0,-999,0.00,,---,0.00,VWS V14.01,2013-02-18 08:30:00,
2013-02-18 00:31:00,31.6,-99.9,29.95,NNW,337,0.0,3.0,-999,0.00,,---,0.00,VWS V14.01,2013-02-18 08:31:00,
2013-02-18 00:36:00,31.7,-99.9,29.95,NNW,337,0.0,0.0,-999,0.00,,---,0.00,VWS V14.01,2013-02-18 08:36:00,
2013-02-18 00:41:00,31.9,-99.9,29.95,NNW,337,0.0,0.0,-999,0.00,,---,0.00,VWS V14.01,2013-02-18 08:41:00,
2013-02-18 00:46:00,31.8,-99.9,29.95,NNW,337,0.0,0.0,-999,0.00,,---,0.00,VWS V14.01,2013-02-18 08:46:00,
2013-02-18 00:51:00,31.2,-99.9,29.95,NNW,337,0.0,0.0,-999,0.00,,---,0.00,VWS V14.01,2013-02-18 08:51:00,
2013-02-18 00:56:00,30.8,-99.9,29.96,NNW,337,0.0,0.0,-999,0.00,,---,0.00,VWS V14.01,2013-02-18 08:56:00,
2013-02-18 01:01:00,30.8,-99.9,29.96,NNW,337,0.0,0.0,-999,0.00,,---,0.00,VWS V14.01,2013-02-18 09:01:00,
2013-02-18 01:06:00,30.9,-99.9,29.96,NNW,337,0.0,0.0,-999,0.00,,---,0.00,VWS V14.01,2013-02-18 09:06:00,
2013-02-18 01:11:00,30.7,-99.9,29.96,NNW,337,0.0,0.0,-999,0.00,,---,0.00,VWS V14.01,2013-02-18 09:11:00,
2013-02-18 01:16:00,31.7,-99.9,29.96,NW,304,1.0,4.0,-999,0.00,,---,0.00,VWS V14.01,2013-02-18 09:16:00,
2013-02-18 01:21:00,31.0,-99.9,29.96,NW,304,0.0,4.0,-999,0.00,,---,0.00,VWS V14.01,2013-02-18 09:21:00,
2013-02-18 01:26:00,30.9,-99.9,29.96,NW,304,0.0,4.0,-999,0.00,,---,0.00,VWS V14.01,2013-02-18 09:26:00,
2013-02-18 01:30:00,31.2,-99.9,29.95,NE,37,0.0,7.0,-999,0.00,,---,0.00,VWS V14.01,2013-02-18 09:30:00,
2013-02-18 01:31:00,31.3,-99.9,29.96,NW,304,0.0,4.0,-999,0.00,,---,0.00,VWS V14.01,2013-02-18 09:31:00,
2013-02-18 01:36:00,30.5,-99.9,29.95,NW,304,0.0,2.0,-999,0.00,,---,0.00,VWS V14.01,2013-02-18 09:36:00,
2013-02-18 01:41:00,32.8,-99.9,29.95,North,358,4.0,7.0,-999,0.00,,---,0.00,VWS V14.01,2013-02-18 09:41:00,
2013-02-18 01:46:00,30.9,-99.9,29.96,NE,38,0.0,7.0,-999,0.00,,---,0.00,VWS V14.01,2013-02-18 09:46:00,
2013-02-18 01:51:00,31.3,-99.9,29.96,NE,38,0.0,7.0,-999,0.00,,---,0.00,VWS V14.01,2013-02-18 09:51:00,
2013-02-18 01:56:00,31.5,-99.9,29.96,North,358,1.0,7.0,-999,0.00,,---,0.00,VWS V14.01,2013-02-18 09:56:00,
2013-02-18 02:00:00,34.5,-99.9,29.94,North,353,6.0,7.0,-999,0.00,,---,0.00,VWS V14.01,2013-02-18 10:00:00,
2013-02-18 02:01:00,30.8,-99.9,29.96,North,358,0.0,7.0,-999,0.00,,---,0.00,VWS V14.01,2013-02-18 10:01:00,
2013-02-18 02:06:00,31.3,-99.9,29.95,NNW,327,1.0,4.0,-999,0.00,,---,0.00,VWS V14.01,2013-02-18 10:06:00,
2013-02-18 02:11:00,33.6,-99.9,29.95,NNW,345,6.0,7.0,-999,0.00,,---,0.00,VWS V14.01,2013-02-18 10:11:00,
2013-02-18 02:16:00,32.3,-99.9,29.95,NE,36,1.0,7.0,-999,0.00,,---,0.00,VWS V14.01,2013-02-18 10:16:00,
2013-02-18 02:21:00,31.0,-99.9,29.95,North,11,0.0,7.0,-999,0.00,,---,0.00,VWS V14.01,2013-02-18 10:21:00,
2013-02-18 02:26:00,32.5,-99.9,29.95,North,0,1.0,7.0,-999,0.00,,---,0.00,VWS V14.01,2013-02-18 10:26:00,
2013-02-18 02:30:00,37.1,-99.9,29.94,North,356,3.0,8.0,-999,0.00,,---,0.00,VWS V14.01,2013-02-18 10:30:00,
2013-02-18 02:31:00,31.3,-99.9,29.95,NE,37,0.0,7.0,-999,0.00,,---,0.00,VWS V14.01,2013-02-18 10:31:00,
2013-02-18 02:36:00,31.0,-99.9,29.95,NW,311,0.0,3.0,-999,0.00,,---,0.00,VWS V14.01,2013-02-18 10:36:00,
2013-02-18 02:41:00,30.3,-99.9,29.95,WNW,303,0.0,3.0,-999,0.00,,---,0.00,VWS V14.01,2013-02-18 10:41:00,
2013-02-18 02:46:00,30.2,-99.9,29.95,WNW,303,0.0,3.0,-999,0.00,,---,0.00,VWS V14.01,2013-02-18 10:46:00,
2013-02-18 02:51:00,31.3,-99.9,29.95,North,0,0.0,6.0,-999,0.00,,---,0.00,VWS V14.01,2013-02-18 10:51:00,
2013-02-18 02:56:00,32.7,-99.9,29.95,North,7,2.0,6.0,-999,0.00,,---,0.00,VWS V14.01,2013-02-18 10:56:00,
2013-02-18 03:00:00,37.8,-99.9,29.92,North,9,3.0,9.0,-999,0.00,,---,0.00,VWS V14.01,2013-02-18 11:00:00,
2013-02-18 03:01:00,34.3,-99.9,29.94,North,1,3.0,6.0,-999,0.00,,---,0.00,VWS V14.01,2013-02-18 11:01:00,
2013-02-18 03:07:00,35.2,-99.9,29.94,North,11,6.0,8.0,-999,0.00,,---,0.00,VWS V14.01,2013-02-18 11:07:00,
2013-02-18 03:12:00,35.2,-99.9,29.94,North,356,3.0,8.0,-999,0.00,,---,0.00,VWS V14.01,2013-02-18 11:12:00,
2013-02-18 03:17:00,34.6,-99.9,29.93,NNW,344,3.0,8.0,-999,0.00,,---,0.00,VWS V14.01,2013-02-18 11:17:00,
2013-02-18 03:22:00,36.1,-99.9,29.93,North,358,6.0,8.0,-999,0.00,,---,0.00,VWS V14.01,2013-02-18 11:22:00,
2013-02-18 03:27:00,36.6,-99.9,29.93,North,356,4.0,8.0,-999,0.00,,---,0.00,VWS V14.01,2013-02-18 11:27:00,
2013-02-18 03:30:00,38.2,-99.9,29.92,North,2,2.0,11.0,-999,0.00,,---,0.00,VWS V14.01,2013-02-18 11:30:00,
2013-02-18 03:32:00,37.1,-99.9,29.94,North,356,3.0,8.0,-999,0.00,,---,0.00,VWS V14.01,2013-02-18 11:32:00,
2013-02-18 03:37:00,36.0,-99.9,29.93,North,354,4.0,7.0,-999,0.00,,---,0.00,VWS V14.01,2013-02-18 11:37:00,
2013-02-18 03:42:00,36.4,-99.9,29.93,North,3,2.0,8.0,-999,0.00,,---,0.00,VWS V14.01,2013-02-18 11:42:00,
2013-02-18 03:47:00,36.1,-99.9,29.93,NE,47,2.0,8.0,-999,0.00,,---,0.00,VWS V14.01,2013-02-18 11:47:00,
2013-02-18 03:52:00,36.5,-99.9,29.93,North,352,3.0,8.0,-999,0.00,,---,0.00,VWS V14.01,2013-02-18 11:52:00,
2013-02-18 03:57:00,37.1,-99.9,29.93,NNE,22,5.0,8.0,-999,0.00,,---,0.00,VWS V14.01,2013-02-18 11:57:00,
2013-02-18 04:00:00,37.2,-99.9,29.92,NNE,13,9.0,10.0,-999,0.00,,---,0.00,VWS V14.01,2013-02-18 12:00:00,
2013-02-18 04:02:00,37.9,-99.9,29.92,NE,34,4.0,5.0,-999,0.00,,---,0.00,VWS V14.01,2013-02-18 12:02:00,
2013-02-18 04:07:00,37.4,-99.9,29.92,NNE,23,4.0,8.0,-999,0.00,,---,0.00,VWS V14.01,2013-02-18 12:07:00,
2013-02-18 04:12:00,37.7,-99.9,29.92,NNE,29,6.0,11.0,-999,0.00,,---,0.00,VWS V14.01,2013-02-18 12:12:00,
2013-02-18 04:17:00,38.0,-99.9,29.92,NNE,23,6.0,11.0,-999,0.00,,---,0.00,VWS V14.01,2013-02-18 12:17:00,
2013-02-18 04:22:00,38.0,-99.9,29.92,NNE,14,2.0,11.0,-999,0.00,,---,0.00,VWS V14.01,2013-02-18 12:22:00,
2013-02-18 04:27:00,37.9,-99.9,29.92,North,6,5.0,11.0,-999,0.00,,---,0.00,VWS V14.01,2013-02-18 12:27:00,
2013-02-18 04:30:00,37.1,-99.9,29.92,North,358,3.0,13.0,-999,0.00,,---,0.00,VWS V14.01,2013-02-18 12:30:00,
2013-02-18 04:32:00,38.1,-99.9,29.92,NNE,12,1.0,2.0,-999,0.00,,---,0.00,VWS V14.01,2013-02-18 12:32:00,
2013-02-18 04:37:00,37.9,-99.9,29.92,North,359,2.0,8.0,-999,0.00,,---,0.00,VWS V14.01,2013-02-18 12:37:00,
2013-02-18 04:42:00,38.1,-99.9,29.93,North,359,3.0,9.0,-999,0.00,,---,0.00,VWS V14.01,2013-02-18 12:42:00,
2013-02-18 04:47:00,37.5,-99.9,29.92,North,8,5.0,9.0,-999,0.00,,---,0.00,VWS V14.01,2013-02-18 12:47:00,
2013-02-18 04:52:00,36.9,-99.9,29.92,NNE,27,1.0,9.0,-999,0.00,,---,0.00,VWS V14.01,2013-02-18 12:52:00,
2013-02-18 04:57:00,37.2,-99.9,29.92,North,10,3.0,9.0,-999,0.00,,---,0.00,VWS V14.01,2013-02-18 12:57:00,
2013-02-18 05:00:00,34.3,-99.9,29.92,NE,55,1.0,8.0,-999,0.00,,---,0.00,VWS V14.01,2013-02-18 13:00:00,
2013-02-18 05:02:00,37.8,-99.9,29.92,NNE,30,8.0,10.0,-999,0.00,,---,0.00,VWS V14.01,2013-02-18 13:02:00,
2013-02-18 05:07:00,38.0,-99.9,29.92,North,6,5.0,13.0,-999,0.00,,---,0.00,VWS V14.01,2013-02-18 13:07:00,
2013-02-18 05:12:00,38.5,-99.9,29.92,North,9,7.0,13.0,-999,0.00,,---,0.00,VWS V14.01,2013-02-18 13:12:00,
2013-02-18 05:17:00,38.1,-99.9,29.92,NE,36,4.0,13.0,-999,0.00,,---,0.00,VWS V14.01,2013-02-18 13:17:00,
2013-02-18 05:22:00,37.6,-99.9,29.92,North,5,8.0,13.0,-999,0.00,,---,0.00,VWS V14.01,2013-02-18 13:22:00,
2013-02-18 05:28:00,37.8,-99.9,29.92,North,8,4.0,13.0,-999,0.00,,---,0.00,VWS V14.01,2013-02-18 13:28:00,
2013-02-18 05:30:00,32.3,-99.9,29.93,NW,321,0.0,5.0,-999,0.00,,---,0.00,VWS V14.01,2013-02-18 13:30:00,
2013-02-18 05:33:00,35.3,-99.9,29.92,North,0,1.0,3.0,-999,0.00,,---,0.00,VWS V14.01,2013-02-18 13:33:00,
2013-02-18 05:38:00,35.4,-99.9,29.92,North,0,0.0,8.0,-999,0.00,,---,0.00,VWS V14.01,2013-02-18 13:38:00,
2013-02-18 05:43:00,35.7,-99.9,29.92,North,0,1.0,8.0,-999,0.00,,---,0.00,VWS V14.01,2013-02-18 13:43:00,
2013-02-18 05:48:00,35.0,-99.9,29.92,North,351,4.0,8.0,-999,0.00,,---,0.00,VWS V14.01,2013-02-18 13:48:00,
2013-02-18 05:53:00,34.4,-99.9,29.92,NNW,335,0.0,8.0,-999,0.00,,---,0.00,VWS V14.01,2013-02-18 13:53:00,
2013-02-18 05:58:00,34.9,-99.9,29.92,NNW,334,0.0,8.0,-999,0.00,,---,0.00,VWS V14.01,2013-02-18 13:58:00,
2013-02-18 06:03:00,34.1,-99.9,29.92,NNW,348,1.0,5.0,-999,0.00,,---,0.00,VWS V14.01,2013-02-18 14:03:00,
2013-02-18 06:08:00,33.5,-99.9,29.92,NE,56,0.0,5.0,-999,0.00,,---,0.00,VWS V14.01,2013-02-18 14:08:00,
2013-02-18 06:13:00,33.6,-99.9,29.92,North,350,4.0,5.0,-999,0.00,,---,0.00,VWS V14.01,2013-02-18 14:13:00,
2013-02-18 06:18:00,32.7,-99.9,29.92,NNW,335,1.0,5.0,-999,0.00,,---,0.00,VWS V14.01,2013-02-18 14:18:00,
2013-02-18 06:23:00,31.9,-99.9,29.92,NNW,335,1.0,5.0,-999,0.00,,---,0.00,VWS V14.01,2013-02-18 14:23:00,
2013-02-18 06:28:00,32.1,-99.9,29.92,NW,321,0.0,5.0,-999,0.00,,---,0.00,VWS V14.01,2013-02-18 14:28:00,
2013-02-18 06:30:00,38.3,-99.9,29.93,ENE,68,0.0,9.0,-999,0.00,,---,0.00,VWS V14.01,2013-02-18 14:30:00,
2013-02-18 06:33:00,33.5,-99.9,29.93,North,0,3.0,5.0,-999,0.00,,---,0.00,VWS V14.01,2013-02-18 14:33:00,
2013-02-18 06:38:00,35.5,-99.9,29.93,North,0,3.0,8.0,-999,0.00,,---,0.00,VWS V14.01,2013-02-18 14:38:00,
2013-02-18 06:43:00,34.1,-99.9,29.93,North,356,6.0,8.0,-999,0.00,,---,0.00,VWS V14.01,2013-02-18 14:43:00,
2013-02-18 06:48:00,35.9,-99.9,29.93,North,349,3.0,8.0,-999,0.00,,---,0.00,VWS V14.01,2013-02-18 14:48:00,
2013-02-18 06:53:00,35.4,-99.9,29.93,North,0,1.0,8.0,-999,0.00,,---,0.00,VWS V14.01,2013-02-18 14:53:00,
2013-02-18 06:58:00,33.0,-99.9,29.92,NNW,344,0.0,8.0,-999,0.00,,---,0.00,VWS V14.01,2013-02-18 14:58:00,
2013-02-18 07:00:00,39.1,-99.9,29.94,NW,320,2.0,7.0,-999,0.00,,---,0.00,VWS V14.01,2013-02-18 15:00:00,
2013-02-18 07:03:00,33.3,-99.9,29.92,NNE,12,2.0,3.0,-999,0.00,,---,0.00,VWS V14.01,2013-02-18 15:03:00,
2013-02-18 07:08:00,32.7,-99.9,29.92,NE,35,0.0,4.0,-999,0.00,,---,0.00,VWS V14.01,2013-02-18 15:08:00,
2013-02-18 07:13:00,36.0,-99.9,29.92,NE,43,1.0,8.0,-999,0.00,,---,0.00,VWS V14.01,2013-02-18 15:13:00,
2013-02-18 07:18:00,35.1,-99.9,29.92,ENE,60,5.0,8.0,-999,0.00,,---,0.00,VWS V14.01,2013-02-18 15:18:00,
2013-02-18 07:23:00,37.7,-99.9,29.92,North,357,4.0,8.0,-999,0.00,,---,0.00,VWS V14.01,2013-02-18 15:23:00,
2013-02-18 07:28:00,37.8,-99.9,29.92,North,352,8.0,9.0,-999,0.00,,---,0.00,VWS V14.01,2013-02-18 15:28:00,
2013-02-18 07:30:00,43.1,-99.9,29.94,North,3,0.0,7.0,-999,0.00,,---,0.00,VWS V14.01,2013-02-18 15:30:00,
2013-02-18 07:34:00,37.5,-99.9,29.93,ENE,76,3.0,6.0,-999,0.00,,---,0.00,VWS V14.01,2013-02-18 15:34:00,
2013-02-18 07:39:00,38.2,-99.9,29.93,North,9,1.0,7.0,-999,0.00,,---,0.00,VWS V14.01,2013-02-18 15:39:00,
2013-02-18 07:44:00,38.3,-99.9,29.93,North,350,4.0,7.0,-999,0.00,,---,0.00,VWS V14.01,2013-02-18 15:44:00,
2013-02-18 07:49:00,38.3,-99.9,29.94,North,0,0.0,7.0,-999,0.00,,---,0.00,VWS V14.01,2013-02-18 15:49:00,
2013-02-18 07:54:00,39.2,-99.9,29.94,North,353,5.0,7.0,-999,0.00,,---,0.00,VWS V14.01,2013-02-18 15:54:00,
2013-02-18 07:59:00,38.9,-99.9,29.94,WNW,303,3.0,7.0,-999,0.00,,---,0.00,VWS V14.01,2013-02-18 15:59:00,
2013-02-18 08:04:00,38.0,-99.9,29.94,NW,320,3.0,3.0,-999,0.00,,---,0.00,VWS V14.01,2013-02-18 16:04:00,
2013-02-18 08:09:00,39.9,-99.9,29.94,NNW,339,3.0,7.0,-999,0.00,,---,0.00,VWS V14.01,2013-02-18 16:09:00,
2013-02-18 08:14:00,40.4,-99.9,29.94,NNW,331,0.0,7.0,-999,0.00,,---,0.00,VWS V14.01,2013-02-18 16:14:00,
2013-02-18 08:19:00,41.2,-99.9,29.94,NNW,331,0.0,7.0,-999,0.00,,---,0.00,VWS V14.01,2013-02-18 16:19:00,
2013-02-18 08:24:00,41.3,-99.9,29.94,NNW,331,0.0,7.0,-999,0.00,,---,0.00,VWS V14.01,2013-02-18 16:24:00,
2013-02-18 08:29:00,42.0,-99.9,29.94,North,0,3.0,7.0,-999,0.00,,---,0.00,VWS V14.01,2013-02-18 16:29:00,
2013-02-18 08:30:00,55.8,-99.9,29.94,ESE,105,1.0,3.0,-999,0.00,,---,0.00,VWS V14.01,2013-02-18 16:30:00,
2013-02-18 08:34:00,41.8,-99.9,29.95,East,95,1.0,3.0,-999,0.00,,---,0.00,VWS V14.01,2013-02-18 16:34:00,
2013-02-18 08:39:00,48.7,-99.9,29.94,North,10,0.0,3.0,-999,0.00,,---,0.00,VWS V14.01,2013-02-18 16:39:00,
2013-02-18 08:44:00,48.3,-99.9,29.94,NNE,15,0.0,3.0,-999,0.00,,---,0.00,VWS V14.01,2013-02-18 16:44:00,
2013-02-18 08:49:00,47.8,-99.9,29.94,North,0,2.0,3.0,-999,0.00,,---,0.00,VWS V14.01,2013-02-18 16:49:00,
2013-02-18 08:54:00,49.0,-99.9,29.94,ENE,64,0.0,3.0,-999,0.00,,---,0.00,VWS V14.01,2013-02-18 16:54:00,
2013-02-18 08:59:00,52.9,-99.9,29.94,ESE,105,0.0,3.0,-999,0.00,,---,0.00,VWS V14.01,2013-02-18 16:59:00,
2013-02-18 09:04:00,54.5,-99.9,29.95,ESE,105,0.0,1.0,-999,0.00,,---,0.00,VWS V14.01,2013-02-18 17:04:00,
2013-02-18 09:09:00,56.2,-99.9,29.94,ESE,105,0.0,1.0,-999,0.00,,---,0.00,VWS V14.01,2013-02-18 17:09:00,
2013-02-18 09:14:00,57.3,-99.9,29.95,ESE,104,0.0,1.0,-999,0.00,,---,0.00,VWS V14.01,2013-02-18 17:14:00,
2013-02-18 09:19:00,57.9,-99.9,29.95,ESE,105,0.0,1.0,-999,0.00,,---,0.00,VWS V14.01,2013-02-18 17:19:00,
2013-02-18 09:24:00,56.8,-99.9,29.95,ESE,105,2.0,2.0,-999,0.00,,---,0.00,VWS V14.01,2013-02-18 17:24:00,
2013-02-18 09:29:00,56.7,-99.9,29.94,ESE,105,1.0,3.0,-999,0.00,,---,0.00,VWS V14.01,2013-02-18 17:29:00,
2013-02-18 09:30:00,63.2,-99.9,29.94,South,171,1.0,7.0,-999,0.00,,---,0.00,VWS V14.01,2013-02-18 17:30:00,
2013-02-18 09:34:00,56.1,-99.9,29.95,ESE,105,0.0,2.0,-999,0.00,,---,0.00,VWS V14.01,2013-02-18 17:34:00,
2013-02-18 09:39:00,60.3,-99.9,29.94,ESE,105,0.0,2.0,-999,0.00,,---,0.00,VWS V14.01,2013-02-18 17:39:00,
2013-02-18 09:44:00,59.6,-99.9,29.94,SW,229,3.0,3.0,-999,0.00,,---,0.00,VWS V14.01,2013-02-18 17:44:00,
2013-02-18 09:49:00,61.7,-99.9,29.94,SW,222,0.0,4.0,-999,0.00,,---,0.00,VWS V14.01,2013-02-18 17:49:00,
2013-02-18 09:54:00,59.4,-99.9,29.94,SSE,167,0.0,4.0,-999,0.00,,---,0.00,VWS V14.01,2013-02-18 17:54:00,
2013-02-18 09:59:00,59.0,-99.9,29.94,South,176,0.0,4.0,-999,0.00,,---,0.00,VWS V14.01,2013-02-18 17:59:00,
2013-02-18 10:00:00,66.3,-99.9,29.93,South,183,6.0,10.0,-999,0.00,,---,0.00,VWS V14.01,2013-02-18 18:00:00,
2013-02-18 10:04:00,59.5,-99.9,29.93,ESE,113,2.0,3.0,-999,0.00,,---,0.00,VWS V14.01,2013-02-18 18:04:00,
2013-02-18 10:09:00,61.0,-99.9,29.93,SSW,192,0.0,7.0,-999,0.00,,---,0.00,VWS V14.01,2013-02-18 18:09:00,
2013-02-18 10:14:00,60.0,-99.9,29.93,SW,222,0.0,7.0,-999,0.00,,---,0.00,VWS V14.01,2013-02-18 18:14:00,
2013-02-18 10:19:00,60.0,-99.9,29.93,South,177,4.0,7.0,-999,0.00,,---,0.00,VWS V14.01,2013-02-18 18:19:00,
2013-02-18 10:24:00,60.9,-99.9,29.94,SE,136,1.0,7.0,-999,0.00,,---,0.00,VWS V14.01,2013-02-18 18:24:00,
2013-02-18 10:30:00,64.9,-99.9,29.94,South,189,2.0,7.0,-999,0.00,,---,0.00,VWS V14.01,2013-02-18 18:30:00,
2013-02-18 10:35:00,65.9,-99.9,29.94,South,169,3.0,5.0,-999,0.00,,---,0.00,VWS V14.01,2013-02-18 18:35:00,
2013-02-18 10:40:00,62.7,-99.9,29.94,SSW,192,1.0,5.0,-999,0.00,,---,0.00,VWS V14.01,2013-02-18 18:40:00,
2013-02-18 10:45:00,64.9,-99.9,29.93,ESE,118,1.0,7.0,-999,0.00,,---,0.00,VWS V14.01,2013-02-18 18:45:00,
2013-02-18 10:50:00,66.8,-99.9,29.94,SSE,153,1.0,8.0,-999,0.00,,---,0.00,VWS V14.01,2013-02-18 18:50:00,
2013-02-18 10:55:00,63.2,-99.9,29.94,South,175,5.0,10.0,-999,0.00,,---,0.00,VWS V14.01,2013-02-18 18:55:00,
2013-02-18 11:00:00,63.9,-99.9,29.94,South,191,8.0,10.0,-999,0.00,,---,0.00,VWS V14.01,2013-02-18 19:00:00,
2013-02-18 11:05:00,66.5,-99.9,29.93,South,171,3.0,9.0,-999,0.00,,---,0.00,VWS V14.01,2013-02-18 19:05:00,
2013-02-18 11:10:00,65.5,-99.9,29.94,South,184,5.0,9.0,-999,0.00,,---,0.00,VWS V14.01,2013-02-18 19:10:00,
2013-02-18 11:15:00,63.0,-99.9,29.93,South,173,4.0,9.0,-999,0.00,,---,0.00,VWS V14.01,2013-02-18 19:15:00,
2013-02-18 11:20:00,62.4,-99.9,29.93,NNE,24,0.0,9.0,-999,0.00,,---,0.00,VWS V14.01,2013-02-18 19:20:00,
2013-02-18 11:25:00,65.2,-99.9,29.94,SSE,152,2.0,9.0,-999,0.00,,---,0.00,VWS V14.01,2013-02-18 19:25:00,
2013-02-18 11:30:00,65.5,-99.9,29.93,South,182,4.0,9.0,-999,0.00,,---,0.00,VWS V14.01,2013-02-18 19:30:00,
2013-02-18 11:35:00,65.8,-99.9,29.93,ESE,112,4.0,10.0,-999,0.00,,---,0.00,VWS V14.01,2013-02-18 19:35:00,
2013-02-18 11:40:00,66.2,-99.9,29.92,ESE,123,8.0,10.0,-999,0.00,,---,0.00,VWS V14.01,2013-02-18 19:40:00,
2013-02-18 11:45:00,64.9,-99.9,29.92,SSE,150,5.0,10.0,-999,0.00,,---,0.00,VWS V14.01,2013-02-18 19:45:00,
2013-02-18 11:50:00,63.5,-99.9,29.92,SE,145,6.0,10.0,-999,0.00,,---,0.00,VWS V14.01,2013-02-18 19:50:00,
2013-02-18 11:55:00,67.2,-99.9,29.92,South,186,5.0,10.0,-999,0.00,,---,0.00,VWS V14.01,2013-02-18 19:55:00,
2013-02-18 12:00:00,64.3,-99.9,29.92,SSW,201,6.0,10.0,-999,0.00,,---,0.00,VWS V14.01,2013-02-18 20:00:00,
2013-02-18 12:05:00,66.4,-99.9,29.92,South,182,7.0,10.0,-999,0.00,,---,0.00,VWS V14.01,2013-02-18 20:05:00,
2013-02-18 12:10:00,65.3,-99.9,29.92,South,184,7.0,10.0,-999,0.00,,---,0.00,VWS V14.01,2013-02-18 20:10:00,
2013-02-18 12:15:00,61.1,-99.9,29.91,East,91,6.0,12.0,-999,0.00,,---,0.00,VWS V14.01,2013-02-18 20:15:00,
2013-02-18 12:20:00,63.1,-99.9,29.91,SE,142,7.0,12.0,-999,0.00,,---,0.00,VWS V14.01,2013-02-18 20:20:00,
2013-02-18 12:25:00,64.5,-99.9,29.91,SSW,193,7.0,13.0,-999,0.00,,---,0.00,VWS V14.01,2013-02-18 20:25:00,
2013-02-18 12:30:00,63.5,-99.9,29.90,ENE,72,0.0,13.0,-999,0.00,,---,0.00,VWS V14.01,2013-02-18 20:30:00,
2013-02-18 12:35:00,63.1,-99.9,29.91,SE,126,2.0,11.0,-999,0.00,,---,0.00,VWS V14.01,2013-02-18 20:35:00,
2013-02-18 12:40:00,62.2,-99.9,29.90,SSE,154,2.0,13.0,-999,0.00,,---,0.00,VWS V14.01,2013-02-18 20:40:00,
2013-02-18 12:46:00,62.3,-99.9,29.90,SSW,211,6.0,13.0,-999,0.00,,---,0.00,VWS V14.01,2013-02-18 20:46:00,
2013-02-18 12:51:00,62.6,-99.9,29.90,South,190,3.0,13.0,-999,0.00,,---,0.00,VWS V14.01,2013-02-18 20:51:00,
2013-02-18 12:56:00,62.0,-99.9,29.90,South,173,5.0,13.0,-999,0.00,,---,0.00,VWS V14.01,2013-02-18 20:56:00,
2013-02-18 13:00:00,59.9,-99.9,29.88,South,177,1.0,13.0,-999,0.00,,---,0.00,VWS V14.01,2013-02-18 21:00:00,
2013-02-18 13:01:00,60.7,-99.9,29.90,SSE,160,3.0,15.0,-999,0.00,,---,0.00,VWS V14.01,2013-02-18 21:01:00,
2013-02-18 13:06:00,61.3,-99.9,29.90,South,176,12.0,12.0,-999,0.00,,---,0.00,VWS V14.01,2013-02-18 21:06:00,
2013-02-18 13:11:00,61.1,-99.9,29.90,South,181,6.0,13.0,-999,0.00,,---,0.00,VWS V14.01,2013-02-18 21:11:00,
2013-02-18 13:16:00,62.0,-99.9,29.89,ESE,118,6.0,13.0,-999,0.00,,---,0.00,VWS V14.01,2013-02-18 21:16:00,
2013-02-18 13:21:00,60.6,-99.9,29.90,SE,141,2.0,13.0,-999,0.00,,---,0.00,VWS V14.01,2013-02-18 21:21:00,
2013-02-18 13:26:00,59.9,-99.9,29.89,SSE,148,5.0,13.0,-999,0.00,,---,0.00,VWS V14.01,2013-02-18 21:26:00,
2013-02-18 13:30:00,57.9,-99.9,29.87,SE,136,1.0,11.0,-999,0.00,,---,0.00,VWS V14.01,2013-02-18 21:30:00,
2013-02-18 13:31:00,60.5,-99.9,29.89,SSE,168,2.0,14.0,-999,0.00,,---,0.00,VWS V14.01,2013-02-18 21:31:00,
2013-02-18 13:36:00,58.6,-99.9,29.89,SE,137,7.0,10.0,-999,0.00,,---,0.00,VWS V14.01,2013-02-18 21:36:00,
2013-02-18 13:41:00,60.3,-99.9,29.89,SSE,165,4.0,10.0,-999,0.00,,---,0.00,VWS V14.01,2013-02-18 21:41:00,
2013-02-18 13:46:00,59.6,-99.9,29.88,SE,126,4.0,10.0,-999,0.00,,---,0.00,VWS V14.01,2013-02-18 21:46:00,
2013-02-18 13:51:00,59.8,-99.9,29.88,SE,141,7.0,10.0,-999,0.00,,---,0.00,VWS V14.01,2013-02-18 21:51:00,
2013-02-18 13:56:00,58.0,-99.9,29.88,SSE,158,4.0,10.0,-999,0.00,,---,0.00,VWS V14.01,2013-02-18 21:56:00,
2013-02-18 14:00:00,57.9,-99.9,29.87,SSE,161,4.0,14.0,-999,0.00,,---,0.00,VWS V14.01,2013-02-18 22:00:00,
2013-02-18 14:01:00,58.8,-99.9,29.88,SSE,168,2.0,13.0,-999,0.00,,---,0.00,VWS V14.01,2013-02-18 22:01:00,
2013-02-18 14:06:00,59.3,-99.9,29.88,South,179,5.0,10.0,-999,0.00,,---,0.00,VWS V14.01,2013-02-18 22:06:00,
2013-02-18 14:11:00,59.3,-99.9,29.88,East,96,3.0,11.0,-999,0.00,,---,0.00,VWS V14.01,2013-02-18 22:11:00,
2013-02-18 14:16:00,58.6,-99.9,29.87,South,183,8.0,11.0,-999,0.00,,---,0.00,VWS V14.01,2013-02-18 22:16:00,
2013-02-18 14:21:00,58.8,-99.9,29.87,South,172,6.0,11.0,-999,0.00,,---,0.00,VWS V14.01,2013-02-18 22:21:00,
2013-02-18 14:26:00,59.3,-99.9,29.87,SSE,151,2.0,11.0,-999,0.00,,---,0.00,VWS V14.01,2013-02-18 22:26:00,
2013-02-18 14:30:00,56.1,-99.9,29.85,East,93,4.0,11.0,-999,0.00,,---,0.00,VWS V14.01,2013-02-18 22:30:00,
2013-02-18 14:31:00,57.9,-99.9,29.87,SE,124,3.0,11.0,-999,0.00,,---,0.00,VWS V14.01,2013-02-18 22:31:00,
2013-02-18 14:36:00,58.7,-99.9,29.87,SSE,163,6.0,11.0,-999,0.00,,---,0.00,VWS V14.01,2013-02-18 22:36:00,
2013-02-18 14:41:00,58.7,-99.9,29.87,ESE,114,4.0,11.0,-999,0.00,,---,0.00,VWS V14.01,2013-02-18 22:41:00,
2013-02-18 14:46:00,57.9,-99.9,29.87,SSW,192,5.0,11.0,-999,0.00,,---,0.00,VWS V14.01,2013-02-18 22:46:00,
2013-02-18 14:51:00,59.0,-99.9,29.87,South,191,5.0,11.0,-999,0.00,,---,0.00,VWS V14.01,2013-02-18 22:51:00,
2013-02-18 14:56:00,58.8,-99.9,29.87,SSE,165,3.0,14.0,-999,0.00,,---,0.00,VWS V14.01,2013-02-18 22:56:00,
2013-02-18 15:00:00,55.3,-99.9,29.85,ESE,122,3.0,11.0,-999,0.00,,---,0.00,VWS V14.01,2013-02-18 23:00:00,
2013-02-18 15:01:00,58.1,-99.9,29.87,SSE,164,5.0,14.0,-999,0.00,,---,0.00,VWS V14.01,2013-02-18 23:01:00,
2013-02-18 15:06:00,57.4,-99.9,29.87,SSE,162,3.0,6.0,-999,0.00,,---,0.00,VWS V14.01,2013-02-18 23:06:00,
2013-02-18 15:11:00,57.5,-99.9,29.86,South,169,3.0,8.0,-999,0.00,,---,0.00,VWS V14.01,2013-02-18 23:11:00,
2013-02-18 15:16:00,56.2,-99.9,29.86,SE,134,4.0,10.0,-999,0.00,,---,0.00,VWS V14.01,2013-02-18 23:16:00,
2013-02-18 15:22:00,56.3,-99.9,29.86,SE,124,2.0,10.0,-999,0.00,,---,0.00,VWS V14.01,2013-02-18 23:22:00,
2013-02-18 15:27:00,56.1,-99.9,29.86,ESE,123,3.0,10.0,-999,0.00,,---,0.00,VWS V14.01,2013-02-18 23:27:00,
2013-02-18 15:30:00,52.6,-99.9,29.85,SSE,150,1.0,15.0,-999,0.00,,---,0.00,VWS V14.01,2013-02-18 23:30:00,
2013-02-18 15:32:00,56.1,-99.9,29.85,ESE,122,2.0,11.0,-999,0.00,,---,0.00,VWS V14.01,2013-02-18 23:32:00,
2013-02-18 15:37:00,56.1,-99.9,29.85,SE,137,4.0,11.0,-999,0.00,,---,0.00,VWS V14.01,2013-02-18 23:37:00,
2013-02-18 15:42:00,55.9,-99.9,29.85,SSE,147,3.0,11.0,-999,0.00,,---,0.00,VWS V14.01,2013-02-18 23:42:00,
2013-02-18 15:47:00,55.3,-99.9,29.85,SSE,161,3.0,11.0,-999,0.00,,---,0.00,VWS V14.01,2013-02-18 23:47:00,
2013-02-18 15:52:00,56.0,-99.9,29.85,ESE,121,1.0,11.0,-999,0.00,,---,0.00,VWS V14.01,2013-02-18 23:52:00,
2013-02-18 15:57:00,55.8,-99.9,29.85,SSE,159,2.0,11.0,-999,0.00,,---,0.00,VWS V14.01,2013-02-18 23:57:00,
2013-02-18 16:02:00,55.3,-99.9,29.85,SE,127,3.0,11.0,-999,0.00,,---,0.00,VWS V14.01,2013-02-19 00:02:00,
2013-02-18 16:07:00,54.5,-99.9,29.85,SE,139,3.0,10.0,-999,0.00,,---,0.00,VWS V14.01,2013-02-19 00:07:00,
2013-02-18 16:12:00,54.3,-99.9,29.85,SE,132,3.0,11.0,-999,0.00,,---,0.00,VWS V14.01,2013-02-19 00:12:00,
2013-02-18 16:17:00,53.4,-99.9,29.85,ESE,109,3.0,11.0,-999,0.00,,---,0.00,VWS V14.01,2013-02-19 00:17:00,
2013-02-18 16:22:00,53.6,-99.9,29.85,SSE,155,4.0,11.0,-999,0.00,,---,0.00,VWS V14.01,2013-02-19 00:22:00,
2013-02-18 16:27:00,53.5,-99.9,29.85,SSE,156,5.0,11.0,-999,0.00,,---,0.00,VWS V14.01,2013-02-19 00:27:00,
2013-02-18 16:30:00,47.7,-99.9,29.87,SE,144,3.0,12.0,-999,0.00,,---,0.00,VWS V14.01,2013-02-19 00:30:00,
2013-02-18 16:32:00,52.6,-99.9,29.85,SSE,149,0.0,1.0,-999,0.00,,---,0.00,VWS V14.01,2013-02-19 00:32:00,
2013-02-18 16:37:00,53.1,-99.9,29.85,South,178,7.0,12.0,-999,0.00,,---,0.00,VWS V14.01,2013-02-19 00:37:00,
2013-02-18 16:42:00,51.5,-99.9,29.86,SE,144,4.0,12.0,-999,0.00,,---,0.00,VWS V14.01,2013-02-19 00:42:00,
2013-02-18 16:47:00,50.7,-99.9,29.86,SSE,155,4.0,12.0,-999,0.00,,---,0.00,VWS V14.01,2013-02-19 00:47:00,
2013-02-18 16:52:00,49.9,-99.9,29.86,SW,234,3.0,12.0,-999,0.00,,---,0.00,VWS V14.01,2013-02-19 00:52:00,
2013-02-18 16:57:00,49.3,-99.9,29.86,SSE,158,2.0,12.0,-999,0.00,,---,0.00,VWS V14.01,2013-02-19 00:57:00,
2013-02-18 17:00:00,46.9,-99.9,29.88,South,173,0.0,11.0,-999,0.00,,---,0.00,VWS V14.01,2013-02-19 01:00:00,
2013-02-18 17:02:00,48.6,-99.9,29.86,SSE,156,6.0,12.0,-999,0.00,,---,0.00,VWS V14.01,2013-02-19 01:02:00,
2013-02-18 17:07:00,48.4,-99.9,29.86,SW,214,1.0,12.0,-999,0.00,,---,0.00,VWS V14.01,2013-02-19 01:07:00,
2013-02-18 17:12:00,48.6,-99.9,29.86,ESE,113,3.0,12.0,-999,0.00,,---,0.00,VWS V14.01,2013-02-19 01:12:00,
2013-02-18 17:17:00,48.4,-99.9,29.87,SE,135,2.0,12.0,-999,0.00,,---,0.00,VWS V14.01,2013-02-19 01:17:00,
2013-02-18 17:22:00,47.8,-99.9,29.87,SE,140,2.0,12.0,-999,0.00,,---,0.00,VWS V14.01,2013-02-19 01:22:00,
2013-02-18 17:27:00,47.8,-99.9,29.87,WSW,247,2.0,12.0,-999,0.00,,---,0.00,VWS V14.01,2013-02-19 01:27:00,
2013-02-18 17:30:00,46.2,-99.9,29.89,ESE,113,2.0,6.0,-999,0.00,,---,0.00,VWS V14.01,2013-02-19 01:30:00,
2013-02-18 17:32:00,47.4,-99.9,29.87,South,179,1.0,5.0,-999,0.00,,---,0.00,VWS V14.01,2013-02-19 01:32:00,
2013-02-18 17:37:00,47.2,-99.9,29.87,SE,133,11.0,11.0,-999,0.00,,---,0.00,VWS V14.01,2013-02-19 01:37:00,
2013-02-18 17:42:00,47.3,-99.9,29.87,South,185,5.0,11.0,-999,0.00,,---,0.00,VWS V14.01,2013-02-19 01:42:00,
2013-02-18 17:47:00,47.1,-99.9,29.87,SE,134,0.0,11.0,-999,0.00,,---,0.00,VWS V14.01,2013-02-19 01:47:00,
2013-02-18 17:52:00,47.2,-99.9,29.87,SW,218,7.0,11.0,-999,0.00,,---,0.00,VWS V14.01,2013-02-19 01:52:00,
2013-02-18 17:57:00,46.7,-99.9,29.88,SSW,197,0.0,11.0,-999,0.00,,---,0.00,VWS V14.01,2013-02-19 01:57:00,
2013-02-18 18:00:00,46.1,-99.9,29.89,ESE,117,4.0,9.0,-999,0.00,,---,0.00,VWS V14.01,2013-02-19 02:00:00,
2013-02-18 18:02:00,46.9,-99.9,29.88,South,173,0.0,0.0,-999,0.00,,---,0.00,VWS V14.01,2013-02-19 02:02:00,
2013-02-18 18:07:00,46.7,-99.9,29.88,SSW,198,3.0,6.0,-999,0.00,,---,0.00,VWS V14.01,2013-02-19 02:07:00,
2013-02-18 18:12:00,46.4,-99.9,29.88,SE,137,0.0,6.0,-999,0.00,,---,0.00,VWS V14.01,2013-02-19 02:12:00,
2013-02-18 18:17:00,46.5,-99.9,29.88,SE,137,2.0,6.0,-999,0.00,,---,0.00,VWS V14.01,2013-02-19 02:17:00,
2013-02-18 18:22:00,46.4,-99.9,29.88,SE,133,3.0,6.0,-999,0.00,,---,0.00,VWS V14.01,2013-02-19 02:22:00,
2013-02-18 18:27:00,46.4,-99.9,29.88,SE,134,0.0,6.0,-999,0.00,,---,0.00,VWS V14.01,2013-02-19 02:27:00,
2013-02-18 18:30:00,46.0,-99.9,29.88,ESE,102,4.0,10.0,-999,0.00,,---,0.00,VWS V14.01,2013-02-19 02:30:00,
2013-02-18 18:32:00,46.2,-99.9,29.89,SSE,148,4.0,6.0,-999,0.00,,---,0.00,VWS V14.01,2013-02-19 02:32:00,
2013-02-18 18:38:00,46.2,-99.9,29.89,ENE,71,4.0,7.0,-999,0.00,,---,0.00,VWS V14.01,2013-02-19 02:38:00,
2013-02-18 18:42:00,46.2,-99.9,29.89,East,79,5.0,7.0,-999,0.00,,---,0.00,VWS V14.01,2013-02-19 02:42:00,
2013-02-18 18:48:00,46.1,-99.9,29.89,ESE,106,4.0,7.0,-999,0.00,,---,0.00,VWS V14.01,2013-02-19 02:48:00,
2013-02-18 18:53:00,46.2,-99.9,29.88,ENE,57,0.0,8.0,-999,0.00,,---,0.00,VWS V14.01,2013-02-19 02:53:00,
2013-02-18 18:58:00,46.1,-99.9,29.89,ESE,112,6.0,9.0,-999,0.00,,---,0.00,VWS V14.01,2013-02-19 02:58:00,
2013-02-18 19:00:00,45.9,-99.9,29.87,ESE,108,0.0,10.0,-999,0.00,,---,0.00,VWS V14.01,2013-02-19 03:00:00,
2013-02-18 19:03:00,46.1,-99.9,29.89,East,84,4.0,8.0,-999,0.00,,---,0.00,VWS V14.01,2013-02-19 03:03:00,
2013-02-18 19:08:00,46.0,-99.9,29.88,East,79,1.0,10.0,-999,0.00,,---,0.00,VWS V14.01,2013-02-19 03:08:00,
2013-02-18 19:13:00,46.2,-99.9,29.88,ESE,117,0.0,10.0,-999,0.00,,---,0.00,VWS V14.01,2013-02-19 03:13:00,
2013-02-18 19:18:00,46.1,-99.9,29.88,NNE,30,1.0,10.0,-999,0.00,,---,0.00,VWS V14.01,2013-02-19 03:18:00,
2013-02-18 19:23:00,46.0,-99.9,29.89,ESE,111,4.0,10.0,-999,0.00,,---,0.00,VWS V14.01,2013-02-19 03:23:00,
2013-02-18 19:28:00,45.9,-99.9,29.88,East,96,1.0,10.0,-999,0.00,,---,0.00,VWS V14.01,2013-02-19 03:28:00,
2013-02-18 19:30:00,45.4,-99.9,29.88,SSE,163,6.0,9.0,-999,0.00,,---,0.00,VWS V14.01,2013-02-19 03:30:00,
2013-02-18 19:33:00,46.0,-99.9,29.88,SSE,155,4.0,5.0,-999,0.00,,---,0.00,VWS V14.01,2013-02-19 03:33:00,
2013-02-18 19:38:00,46.1,-99.9,29.88,SE,130,1.0,7.0,-999,0.00,,---,0.00,VWS V14.01,2013-02-19 03:38:00,
2013-02-18 19:43:00,45.8,-99.9,29.87,SE,130,0.0,7.0,-999,0.00,,---,0.00,VWS V14.01,2013-02-19 03:43:00,
2013-02-18 19:48:00,45.6,-99.9,29.86,East,94,2.0,10.0,-999,0.00,,---,0.00,VWS V14.01,2013-02-19 03:48:00,
2013-02-18 19:53:00,45.6,-99.9,29.86,SSE,147,3.0,10.0,-999,0.00,,---,0.00,VWS V14.01,2013-02-19 03:53:00,
2013-02-18 19:58:00,45.8,-99.9,29.87,SSW,197,6.0,10.0,-999,0.00,,---,0.00,VWS V14.01,2013-02-19 03:58:00,
2013-02-18 20:00:00,44.4,-99.9,29.88,SSE,167,2.0,11.0,-999,0.00,,---,0.00,VWS V14.01,2013-02-19 04:00:00,
2013-02-18 20:03:00,45.8,-99.9,29.87,South,174,2.0,4.0,-999,0.00,,---,0.00,VWS V14.01,2013-02-19 04:03:00,
2013-02-18 20:08:00,45.8,-99.9,29.87,SE,144,0.0,4.0,-999,0.00,,---,0.00,VWS V14.01,2013-02-19 04:08:00,
2013-02-18 20:13:00,45.7,-99.9,29.87,SSE,161,0.0,5.0,-999,0.00,,---,0.00,VWS V14.01,2013-02-19 04:13:00,
2013-02-18 20:18:00,45.7,-99.9,29.88,South,172,5.0,9.0,-999,0.00,,---,0.00,VWS V14.01,2013-02-19 04:18:00,
2013-02-18 20:23:00,45.5,-99.9,29.88,SW,220,4.0,9.0,-999,0.00,,---,0.00,VWS V14.01,2013-02-19 04:23:00,
2013-02-18 20:28:00,45.3,-99.9,29.88,SSE,159,3.0,9.0,-999,0.00,,---,0.00,VWS V14.01,2013-02-19 04:28:00,
2013-02-18 20:30:00,43.7,-99.9,29.87,SE,125,5.0,15.0,-999,0.00,,---,0.00,VWS V14.01,2013-02-19 04:30:00,
2013-02-18 20:33:00,45.4,-99.9,29.88,South,178,5.0,6.0,-999,0.00,,---,0.00,VWS V14.01,2013-02-19 04:33:00,
2013-02-18 20:38:00,45.2,-99.9,29.88,SE,133,3.0,6.0,-999,0.00,,---,0.00,VWS V14.01,2013-02-19 04:38:00,
2013-02-18 20:43:00,44.8,-99.9,29.88,SSE,155,3.0,6.0,-999,0.00,,---,0.00,VWS V14.01,2013-02-19 04:43:00,
2013-02-18 20:48:00,45.0,-99.9,29.88,SSE,166,1.0,7.0,-999,0.00,,---,0.00,VWS V14.01,2013-02-19 04:48:00,
2013-02-18 20:54:00,44.6,-99.9,29.88,East,84,3.0,11.0,-999,0.00,,---,0.00,VWS V14.01,2013-02-19 04:54:00,
2013-02-18 20:59:00,44.6,-99.9,29.88,SE,131,3.0,11.0,-999,0.00,,---,0.00,VWS V14.01,2013-02-19 04:59:00,
2013-02-18 21:00:00,44.5,-99.9,29.88,SE,124,3.0,11.0,-999,0.00,,---,0.00,VWS V14.01,2013-02-19 05:00:00,
2013-02-18 21:05:00,44.3,-99.9,29.88,ESE,113,3.0,6.0,-999,0.00,,---,0.00,VWS V14.01,2013-02-19 05:05:00,
2013-02-18 21:10:00,44.1,-99.9,29.88,East,101,5.0,7.0,-999,0.00,,---,0.00,VWS V14.01,2013-02-19 05:10:00,
2013-02-18 21:15:00,44.0,-99.9,29.87,East,91,8.0,12.0,-999,0.00,,---,0.00,VWS V14.01,2013-02-19 05:15:00,
2013-02-18 21:20:00,43.9,-99.9,29.87,ESE,108,3.0,15.0,-999,0.00,,---,0.00,VWS V14.01,2013-02-19 05:20:00,
2013-02-18 21:25:00,43.9,-99.9,29.87,SE,130,3.0,15.0,-999,0.00,,---,0.00,VWS V14.01,2013-02-19 05:25:00,
2013-02-18 21:30:00,43.7,-99.9,29.87,SSE,158,9.0,15.0,-999,0.00,,---,0.00,VWS V14.01,2013-02-19 05:30:00,
2013-02-18 21:35:00,43.7,-99.9,29.88,East,90,4.0,13.0,-999,0.00,,---,0.00,VWS V14.01,2013-02-19 05:35:00,
2013-02-18 21:40:00,43.7,-99.9,29.87,ESE,102,5.0,13.0,-999,0.00,,---,0.00,VWS V14.01,2013-02-19 05:40:00,
2013-02-18 21:45:00,43.5,-99.9,29.87,East,79,2.0,13.0,-999,0.00,,---,0.00,VWS V14.01,2013-02-19 05:45:00,
2013-02-18 21:50:00,43.5,-99.9,29.88,SE,128,8.0,13.0,-999,0.00,,---,0.00,VWS V14.01,2013-02-19 05:50:00,
2013-02-18 21:55:00,43.5,-99.9,29.88,ENE,71,3.0,13.0,-999,0.00,,---,0.00,VWS V14.01,2013-02-19 05:55:00,
2013-02-18 22:00:00,42.7,-99.9,29.87,East,96,4.0,17.0,-999,0.00,,---,0.00,VWS V14.01,2013-02-19 06:00:00,
2013-02-18 22:01:00,43.4,-99.9,29.87,ESE,111,11.0,16.0,-999,0.00,,---,0.00,VWS V14.01,2013-02-19 06:01:00,
2013-02-18 22:06:00,43.3,-99.9,29.87,East,86,3.0,10.0,-999,0.00,,---,0.00,VWS V14.01,2013-02-19 06:06:00,
2013-02-18 22:11:00,43.3,-99.9,29.87,SE,141,4.0,13.0,-999,0.00,,---,0.00,VWS V14.01,2013-02-19 06:11:00,
2013-02-18 22:16:00,43.3,-99.9,29.87,SSW,199,6.0,13.0,-999,0.00,,---,0.00,VWS V14.01,2013-02-19 06:16:00,
2013-02-18 22:21:00,43.3,-99.9,29.87,ESE,108,4.0,13.0,-999,0.00,,---,0.00,VWS V14.01,2013-02-19 06:21:00,
2013-02-18 22:26:00,43.3,-99.9,29.87,SE,146,4.0,13.0,-999,0.00,,---,0.00,VWS V14.01,2013-02-19 06:26:00,
2013-02-18 22:30:00,42.5,-99.9,29.87,SE,139,7.0,13.0,-999,0.00,,---,0.00,VWS V14.01,2013-02-19 06:30:00,
2013-02-18 22:31:00,43.2,-99.9,29.88,ENE,72,2.0,13.0,-999,0.00,,---,0.00,VWS V14.01,2013-02-19 06:31:00,
2013-02-18 22:36:00,43.2,-99.9,29.88,ENE,77,4.0,11.0,-999,0.00,,---,0.00,VWS V14.01,2013-02-19 06:36:00,
2013-02-18 22:41:00,43.1,-99.9,29.87,ESE,123,3.0,11.0,-999,0.00,,---,0.00,VWS V14.01,2013-02-19 06:41:00,
2013-02-18 22:46:00,42.9,-99.9,29.87,ESE,117,5.0,17.0,-999,0.00,,---,0.00,VWS V14.01,2013-02-19 06:46:00,
2013-02-18 22:51:00,42.8,-99.9,29.87,ENE,57,2.0,17.0,-999,0.00,,---,0.00,VWS V14.01,2013-02-19 06:51:00,
2013-02-18 22:56:00,42.7,-99.9,29.87,ENE,77,3.0,17.0,-999,0.00,,---,0.00,VWS V14.01,2013-02-19 06:56:00,
2013-02-18 23:00:00,42.4,-99.9,29.87,SSE,150,7.0,18.0,-999,0.00,,---,0.00,VWS V14.01,2013-02-19 07:00:00,
2013-02-18 23:01:00,42.8,-99.9,29.87,East,96,4.0,17.0,-999,0.00,,---,0.00,VWS V14.01,2013-02-19 07:01:00,
2013-02-18 23:06:00,42.8,-99.9,29.87,SE,125,4.0,10.0,-999,0.00,,---,0.00,VWS V14.01,2013-02-19 07:06:00,
2013-02-18 23:11:00,42.7,-99.9,29.87,SE,136,0.0,11.0,-999,0.00,,---,0.00,VWS V14.01,2013-02-19 07:11:00,
2013-02-18 23:16:00,42.7,-99.9,29.87,ENE,73,5.0,11.0,-999,0.00,,---,0.00,VWS V14.01,2013-02-19 07:16:00,
2013-02-18 23:21:00,42.6,-99.9,29.87,SSE,149,6.0,13.0,-999,0.00,,---,0.00,VWS V14.01,2013-02-19 07:21:00,
2013-02-18 23:26:00,42.5,-99.9,29.86,East,98,5.0,13.0,-999,0.00,,---,0.00,VWS V14.01,2013-02-19 07:26:00,
2013-02-18 23:30:00,42.4,-99.9,29.86,ENE,57,5.0,13.0,-999,0.00,,---,0.00,VWS V14.01,2013-02-19 07:30:00,
2013-02-18 23:31:00,42.5,-99.9,29.87,SSE,149,7.0,7.0,-999,0.00,,---,0.00,VWS V14.01,2013-02-19 07:31:00,
2013-02-18 23:36:00,42.5,-99.9,29.87,SE,132,8.0,10.0,-999,0.00,,---,0.00,VWS V14.01,2013-02-19 07:36:00,
2013-02-18 23:41:00,42.4,-99.9,29.87,East,98,2.0,18.0,-999,0.00,,---,0.00,VWS V14.01,2013-02-19 07:41:00,
2013-02-18 23:46:00,42.4,-99.9,29.87,SSE,148,3.0,18.0,-999,0.00,,---,0.00,VWS V14.01,2013-02-19 07:46:00,
2013-02-18 23:51:00,42.4,-99.9,29.87,SE,127,3.0,18.0,-999,0.00,,---,0.00,VWS V14.01,2013-02-19 07:51:00,
2013-02-18 23:56:00,42.4,-99.9,29.87,ENE,62,4.0,18.0,-999,0.00,,---,0.00,VWS V14.01,2013-02-19 07:56:00,